sensor_id;sensor_type;location;lat;lon;timestamp;temperature;humidity
54082;DHT22;39986;50.770;0.266;2022-10-16T00:02:17;15.60;99.90
54082;DHT22;39986;50.770;0.266;2022-10-16T00:04:43;15.70;99.90
54082;DHT22;39986;50.770;0.266;2022-10-16T00:07:08;15.80;99.90
54082;DHT22;39986;50.770;0.266;2022-10-16T00:09:34;15.30;99.90
54082;DHT22;39986;50.770;0.266;2022-10-16T00:11:59;15.30;99.90
54082;DHT22;39986;50.770;0.266;2022-10-16T00:14:25;15.20;99.90
54082;DHT22;39986;50.770;0.266;2022-10-16T00:16:50;15.30;99.90
54082;DHT22;39986;50.770;0.266;2022-10-16T00:19:16;15.10;99.90
54082;DHT22;39986;50.770;0.266;2022-10-16T00:21:41;15.20;99.90
54082;DHT22;39986;50.770;0.266;2022-10-16T00:24:07;15.00;99.90
54082;DHT22;39986;50.770;0.266;2022-10-16T00:26:34;15.00;99.90
54082;DHT22;39986;50.770;0.266;2022-10-16T00:29:00;15.10;99.90
54082;DHT22;39986;50.770;0.266;2022-10-16T00:31:25;15.40;99.90
54082;DHT22;39986;50.770;0.266;2022-10-16T00:33:51;15.30;99.90
54082;DHT22;39986;50.770;0.266;2022-10-16T00:36:43;15.30;99.90
54082;DHT22;39986;50.770;0.266;2022-10-16T00:39:08;12.40;99.90
54082;DHT22;39986;50.770;0.266;2022-10-16T00:41:34;15.80;99.90
54082;DHT22;39986;50.770;0.266;2022-10-16T00:44:00;15.60;99.90
54082;DHT22;39986;50.770;0.266;2022-10-16T00:49:22;15.50;99.90
54082;DHT22;39986;50.770;0.266;2022-10-16T00:51:48;15.40;99.90
54082;DHT22;39986;50.770;0.266;2022-10-16T00:54:18;15.50;99.90
54082;DHT22;39986;50.770;0.266;2022-10-16T00:56:44;15.40;99.90
54082;DHT22;39986;50.770;0.266;2022-10-16T00:59:15;15.60;99.90
54082;DHT22;39986;50.770;0.266;2022-10-16T01:01:41;15.60;99.90
54082;DHT22;39986;50.770;0.266;2022-10-16T01:04:06;15.10;99.90
54082;DHT22;39986;50.770;0.266;2022-10-16T01:09:21;14.60;99.90
54082;DHT22;39986;50.770;0.266;2022-10-16T01:14:18;14.40;99.90
54082;DHT22;39986;50.770;0.266;2022-10-16T01:17:18;13.90;99.90
54082;DHT22;39986;50.770;0.266;2022-10-16T01:22:11;13.80;99.90
54082;DHT22;39986;50.770;0.266;2022-10-16T01:31:55;13.40;99.90
54082;DHT22;39986;50.770;0.266;2022-10-16T01:34:25;13.90;99.90
54082;DHT22;39986;50.770;0.266;2022-10-16T01:36:59;17.20;99.90
54082;DHT22;39986;50.770;0.266;2022-10-16T01:39:28;14.00;99.90
54082;DHT22;39986;50.770;0.266;2022-10-16T01:41:55;14.70;99.90
54082;DHT22;39986;50.770;0.266;2022-10-16T01:44:31;14.00;99.90
54082;DHT22;39986;50.770;0.266;2022-10-16T01:46:57;13.90;99.90
54082;DHT22;39986;50.770;0.266;2022-10-16T01:49:24;13.90;99.90
54082;DHT22;39986;50.770;0.266;2022-10-16T01:51:52;13.80;99.90
54082;DHT22;39986;50.770;0.266;2022-10-16T01:54:19;13.80;99.90
54082;DHT22;39986;50.770;0.266;2022-10-16T01:56:45;13.90;99.90
54082;DHT22;39986;50.770;0.266;2022-10-16T01:59:13;10.00;99.90
54082;DHT22;39986;50.770;0.266;2022-10-16T02:01:40;13.80;99.90
54082;DHT22;39986;50.770;0.266;2022-10-16T02:04:29;13.80;99.90
54082;DHT22;39986;50.770;0.266;2022-10-16T02:06:53;13.90;99.90
54082;DHT22;39986;50.770;0.266;2022-10-16T02:09:19;13.80;99.90
54082;DHT22;39986;50.770;0.266;2022-10-16T02:11:45;14.20;99.90
54082;DHT22;39986;50.770;0.266;2022-10-16T02:14:10;13.90;99.90
54082;DHT22;39986;50.770;0.266;2022-10-16T02:16:40;14.00;99.90
54082;DHT22;39986;50.770;0.266;2022-10-16T02:19:06;14.20;99.90
54082;DHT22;39986;50.770;0.266;2022-10-16T02:21:35;14.10;99.90
54082;DHT22;39986;50.770;0.266;2022-10-16T02:26:37;14.10;99.90
54082;DHT22;39986;50.770;0.266;2022-10-16T02:29:07;14.10;99.90
54082;DHT22;39986;50.770;0.266;2022-10-16T02:31:35;14.40;99.90
54082;DHT22;39986;50.770;0.266;2022-10-16T02:34:01;17.70;99.90
54082;DHT22;39986;50.770;0.266;2022-10-16T02:36:31;14.30;99.90
54082;DHT22;39986;50.770;0.266;2022-10-16T02:38:58;14.10;99.90
54082;DHT22;39986;50.770;0.266;2022-10-16T02:41:25;14.20;99.90
54082;DHT22;39986;50.770;0.266;2022-10-16T02:43:51;14.20;99.90
54082;DHT22;39986;50.770;0.266;2022-10-16T02:46:16;14.30;99.90
54082;DHT22;39986;50.770;0.266;2022-10-16T02:48:42;14.60;99.90
54082;DHT22;39986;50.770;0.266;2022-10-16T02:51:08;14.50;99.90
54082;DHT22;39986;50.770;0.266;2022-10-16T02:53:33;14.40;99.90
54082;DHT22;39986;50.770;0.266;2022-10-16T02:55:59;14.40;99.90
54082;DHT22;39986;50.770;0.266;2022-10-16T02:58:24;12.60;99.90
54082;DHT22;39986;50.770;0.266;2022-10-16T03:00:50;14.20;99.90
54082;DHT22;39986;50.770;0.266;2022-10-16T03:03:15;14.30;99.90
54082;DHT22;39986;50.770;0.266;2022-10-16T03:05:42;14.40;99.90
54082;DHT22;39986;50.770;0.266;2022-10-16T03:08:08;14.20;99.90
54082;DHT22;39986;50.770;0.266;2022-10-16T03:10:34;14.30;99.90
54082;DHT22;39986;50.770;0.266;2022-10-16T03:13:00;14.40;99.90
54082;DHT22;39986;50.770;0.266;2022-10-16T03:15:25;15.00;99.90
54082;DHT22;39986;50.770;0.266;2022-10-16T03:17:51;14.20;99.90
54082;DHT22;39986;50.770;0.266;2022-10-16T03:20:16;14.40;99.90
54082;DHT22;39986;50.770;0.266;2022-10-16T03:22:42;14.60;99.90
54082;DHT22;39986;50.770;0.266;2022-10-16T03:25:07;14.60;99.90
54082;DHT22;39986;50.770;0.266;2022-10-16T03:27:33;14.40;99.90
54082;DHT22;39986;50.770;0.266;2022-10-16T03:29:59;14.70;99.90
54082;DHT22;39986;50.770;0.266;2022-10-16T03:32:24;14.10;99.90
54082;DHT22;39986;50.770;0.266;2022-10-16T03:34:50;13.90;99.90
54082;DHT22;39986;50.770;0.266;2022-10-16T03:37:16;13.80;99.90
54082;DHT22;39986;50.770;0.266;2022-10-16T03:39:41;13.70;99.90
54082;DHT22;39986;50.770;0.266;2022-10-16T03:42:07;14.50;99.90
54082;DHT22;39986;50.770;0.266;2022-10-16T03:44:33;13.50;99.90
54082;DHT22;39986;50.770;0.266;2022-10-16T03:46:58;13.40;99.90
54082;DHT22;39986;50.770;0.266;2022-10-16T03:49:24;13.40;99.90
54082;DHT22;39986;50.770;0.266;2022-10-16T03:51:49;13.50;99.90
54082;DHT22;39986;50.770;0.266;2022-10-16T03:54:15;13.50;99.90
54082;DHT22;39986;50.770;0.266;2022-10-16T03:56:40;13.60;99.90
54082;DHT22;39986;50.770;0.266;2022-10-16T03:59:06;14.00;99.90
54082;DHT22;39986;50.770;0.266;2022-10-16T04:01:31;13.90;99.90
54082;DHT22;39986;50.770;0.266;2022-10-16T04:03:57;14.10;99.90
54082;DHT22;39986;50.770;0.266;2022-10-16T04:06:22;13.80;99.90
54082;DHT22;39986;50.770;0.266;2022-10-16T04:08:48;13.70;99.90
54082;DHT22;39986;50.770;0.266;2022-10-16T04:11:14;13.60;99.90
54082;DHT22;39986;50.770;0.266;2022-10-16T04:13:40;13.60;99.90
54082;DHT22;39986;50.770;0.266;2022-10-16T04:16:06;13.40;99.90
54082;DHT22;39986;50.770;0.266;2022-10-16T04:18:32;14.60;99.90
54082;DHT22;39986;50.770;0.266;2022-10-16T04:21:02;13.60;99.90
54082;DHT22;39986;50.770;0.266;2022-10-16T04:23:27;13.60;99.90
54082;DHT22;39986;50.770;0.266;2022-10-16T04:25:53;13.70;99.90
54082;DHT22;39986;50.770;0.266;2022-10-16T04:28:18;15.10;99.90
54082;DHT22;39986;50.770;0.266;2022-10-16T04:30:44;13.90;99.90
54082;DHT22;39986;50.770;0.266;2022-10-16T04:33:09;13.80;99.90
54082;DHT22;39986;50.770;0.266;2022-10-16T04:35:35;14.00;99.90
54082;DHT22;39986;50.770;0.266;2022-10-16T04:38:02;13.90;99.90
54082;DHT22;39986;50.770;0.266;2022-10-16T04:40:28;14.20;99.90
54082;DHT22;39986;50.770;0.266;2022-10-16T04:42:53;14.50;99.90
54082;DHT22;39986;50.770;0.266;2022-10-16T04:45:19;14.00;99.90
54082;DHT22;39986;50.770;0.266;2022-10-16T04:47:44;14.40;99.90
54082;DHT22;39986;50.770;0.266;2022-10-16T04:50:10;14.00;99.90
54082;DHT22;39986;50.770;0.266;2022-10-16T04:52:36;13.90;99.90
54082;DHT22;39986;50.770;0.266;2022-10-16T04:55:01;13.90;99.90
54082;DHT22;39986;50.770;0.266;2022-10-16T04:57:28;13.80;99.90
54082;DHT22;39986;50.770;0.266;2022-10-16T04:59:54;14.10;99.90
54082;DHT22;39986;50.770;0.266;2022-10-16T05:02:19;13.70;99.90
54082;DHT22;39986;50.770;0.266;2022-10-16T05:04:45;13.90;99.90
54082;DHT22;39986;50.770;0.266;2022-10-16T05:07:10;13.80;99.90
54082;DHT22;39986;50.770;0.266;2022-10-16T05:09:36;13.90;99.90
54082;DHT22;39986;50.770;0.266;2022-10-16T05:12:01;14.00;99.90
54082;DHT22;39986;50.770;0.266;2022-10-16T05:14:28;14.10;99.90
54082;DHT22;39986;50.770;0.266;2022-10-16T05:16:54;13.90;99.90
54082;DHT22;39986;50.770;0.266;2022-10-16T05:19:19;13.80;99.90
54082;DHT22;39986;50.770;0.266;2022-10-16T05:21:45;13.90;99.90
54082;DHT22;39986;50.770;0.266;2022-10-16T05:24:10;14.00;99.90
54082;DHT22;39986;50.770;0.266;2022-10-16T05:26:36;13.70;99.90
54082;DHT22;39986;50.770;0.266;2022-10-16T05:29:02;14.00;99.90
54082;DHT22;39986;50.770;0.266;2022-10-16T05:31:28;14.00;99.90
54082;DHT22;39986;50.770;0.266;2022-10-16T05:34:00;14.10;99.90
54082;DHT22;39986;50.770;0.266;2022-10-16T05:36:26;13.90;99.90
54082;DHT22;39986;50.770;0.266;2022-10-16T05:38:52;14.10;99.90
54082;DHT22;39986;50.770;0.266;2022-10-16T05:41:18;14.80;99.90
54082;DHT22;39986;50.770;0.266;2022-10-16T05:43:47;13.90;99.90
54082;DHT22;39986;50.770;0.266;2022-10-16T05:46:13;14.10;99.90
54082;DHT22;39986;50.770;0.266;2022-10-16T05:48:38;14.00;99.90
54082;DHT22;39986;50.770;0.266;2022-10-16T05:51:05;14.00;99.90
54082;DHT22;39986;50.770;0.266;2022-10-16T05:53:32;14.10;99.90
54082;DHT22;39986;50.770;0.266;2022-10-16T05:55:58;13.90;99.90
54082;DHT22;39986;50.770;0.266;2022-10-16T05:58:24;13.80;99.90
54082;DHT22;39986;50.770;0.266;2022-10-16T06:00:54;14.10;99.90
54082;DHT22;39986;50.770;0.266;2022-10-16T06:03:20;13.70;99.90
54082;DHT22;39986;50.770;0.266;2022-10-16T06:05:46;13.80;99.90
54082;DHT22;39986;50.770;0.266;2022-10-16T06:08:11;13.60;99.90
54082;DHT22;39986;50.770;0.266;2022-10-16T06:10:37;13.60;99.90
54082;DHT22;39986;50.770;0.266;2022-10-16T06:13:02;13.70;99.90
54082;DHT22;39986;50.770;0.266;2022-10-16T06:15:28;13.80;99.90
54082;DHT22;39986;50.770;0.266;2022-10-16T06:17:54;16.40;99.90
54082;DHT22;39986;50.770;0.266;2022-10-16T06:20:20;13.80;99.90
54082;DHT22;39986;50.770;0.266;2022-10-16T06:22:46;13.80;99.90
54082;DHT22;39986;50.770;0.266;2022-10-16T06:25:11;13.70;99.90
54082;DHT22;39986;50.770;0.266;2022-10-16T06:27:39;13.70;99.90
54082;DHT22;39986;50.770;0.266;2022-10-16T06:30:04;13.90;99.90
54082;DHT22;39986;50.770;0.266;2022-10-16T06:32:30;13.70;99.90
54082;DHT22;39986;50.770;0.266;2022-10-16T06:34:56;13.80;99.90
54082;DHT22;39986;50.770;0.266;2022-10-16T06:37:24;13.90;99.90
54082;DHT22;39986;50.770;0.266;2022-10-16T06:39:50;14.00;99.90
54082;DHT22;39986;50.770;0.266;2022-10-16T06:42:17;14.10;99.90
54082;DHT22;39986;50.770;0.266;2022-10-16T06:44:43;14.10;99.90
54082;DHT22;39986;50.770;0.266;2022-10-16T06:47:09;14.30;99.90
54082;DHT22;39986;50.770;0.266;2022-10-16T06:49:34;14.10;99.90
54082;DHT22;39986;50.770;0.266;2022-10-16T06:52:00;14.00;99.90
54082;DHT22;39986;50.770;0.266;2022-10-16T06:54:27;14.70;99.90
54082;DHT22;39986;50.770;0.266;2022-10-16T06:56:52;14.00;99.90
54082;DHT22;39986;50.770;0.266;2022-10-16T06:59:22;14.50;99.90
54082;DHT22;39986;50.770;0.266;2022-10-16T07:01:47;13.80;99.90
54082;DHT22;39986;50.770;0.266;2022-10-16T07:04:13;13.90;99.90
54082;DHT22;39986;50.770;0.266;2022-10-16T07:06:38;14.00;99.90
54082;DHT22;39986;50.770;0.266;2022-10-16T07:09:05;14.10;99.90
54082;DHT22;39986;50.770;0.266;2022-10-16T07:11:31;14.50;99.90
54082;DHT22;39986;50.770;0.266;2022-10-16T07:13:57;14.30;99.90
54082;DHT22;39986;50.770;0.266;2022-10-16T07:16:23;14.50;99.90
54082;DHT22;39986;50.770;0.266;2022-10-16T07:18:49;14.80;99.90
54082;DHT22;39986;50.770;0.266;2022-10-16T07:21:17;14.60;99.90
54082;DHT22;39986;50.770;0.266;2022-10-16T07:23:44;14.70;99.90
54082;DHT22;39986;50.770;0.266;2022-10-16T07:26:10;15.00;99.90
54082;DHT22;39986;50.770;0.266;2022-10-16T07:28:36;14.70;99.90
54082;DHT22;39986;50.770;0.266;2022-10-16T07:31:05;15.00;99.90
54082;DHT22;39986;50.770;0.266;2022-10-16T07:33:32;14.90;99.90
54082;DHT22;39986;50.770;0.266;2022-10-16T07:35:58;15.10;99.90
54082;DHT22;39986;50.770;0.266;2022-10-16T07:38:24;14.90;99.90
54082;DHT22;39986;50.770;0.266;2022-10-16T07:41:03;14.90;99.90
54082;DHT22;39986;50.770;0.266;2022-10-16T07:43:28;14.90;99.90
54082;DHT22;39986;50.770;0.266;2022-10-16T07:45:54;14.90;99.90
54082;DHT22;39986;50.770;0.266;2022-10-16T07:48:20;14.90;99.90
54082;DHT22;39986;50.770;0.266;2022-10-16T07:50:46;14.70;99.90
54082;DHT22;39986;50.770;0.266;2022-10-16T07:53:11;14.80;99.90
54082;DHT22;39986;50.770;0.266;2022-10-16T07:55:37;15.00;99.90
54082;DHT22;39986;50.770;0.266;2022-10-16T07:58:03;15.20;99.90
54082;DHT22;39986;50.770;0.266;2022-10-16T08:00:28;15.10;99.90
54082;DHT22;39986;50.770;0.266;2022-10-16T08:02:54;15.50;99.90
54082;DHT22;39986;50.770;0.266;2022-10-16T08:05:19;15.70;99.90
54082;DHT22;39986;50.770;0.266;2022-10-16T08:07:49;15.80;99.90
54082;DHT22;39986;50.770;0.266;2022-10-16T08:10:16;15.80;99.90
54082;DHT22;39986;50.770;0.266;2022-10-16T08:12:41;15.90;99.90
54082;DHT22;39986;50.770;0.266;2022-10-16T08:15:07;15.90;99.90
54082;DHT22;39986;50.770;0.266;2022-10-16T08:17:33;15.90;99.90
54082;DHT22;39986;50.770;0.266;2022-10-16T08:19:58;16.00;99.90
54082;DHT22;39986;50.770;0.266;2022-10-16T08:22:24;16.20;99.90
54082;DHT22;39986;50.770;0.266;2022-10-16T08:24:49;19.00;99.90
54082;DHT22;39986;50.770;0.266;2022-10-16T08:27:15;16.20;99.90
54082;DHT22;39986;50.770;0.266;2022-10-16T08:29:41;16.20;99.90
54082;DHT22;39986;50.770;0.266;2022-10-16T08:32:06;16.50;99.90
54082;DHT22;39986;50.770;0.266;2022-10-16T08:34:33;16.60;99.90
54082;DHT22;39986;50.770;0.266;2022-10-16T08:36:58;16.40;99.90
54082;DHT22;39986;50.770;0.266;2022-10-16T08:39:24;16.50;99.90
54082;DHT22;39986;50.770;0.266;2022-10-16T08:49:21;17.10;99.90
54082;DHT22;39986;50.770;0.266;2022-10-16T08:51:49;17.30;99.90
54082;DHT22;39986;50.770;0.266;2022-10-16T08:56:55;17.50;99.90
54082;DHT22;39986;50.770;0.266;2022-10-16T08:59:21;20.50;99.90
54082;DHT22;39986;50.770;0.266;2022-10-16T09:01:47;17.50;99.90
54082;DHT22;39986;50.770;0.266;2022-10-16T09:06:53;17.70;99.90
54082;DHT22;39986;50.770;0.266;2022-10-16T09:09:28;18.00;99.90
54082;DHT22;39986;50.770;0.266;2022-10-16T09:12:18;18.40;99.90
54082;DHT22;39986;50.770;0.266;2022-10-16T09:22:31;20.00;99.90
54082;DHT22;39986;50.770;0.266;2022-10-16T09:25:00;20.20;99.90
54082;DHT22;39986;50.770;0.266;2022-10-16T09:27:30;21.00;99.90
54082;DHT22;39986;50.770;0.266;2022-10-16T09:29:56;20.30;99.90
54082;DHT22;39986;50.770;0.266;2022-10-16T09:32:21;20.30;99.90
54082;DHT22;39986;50.770;0.266;2022-10-16T09:34:50;20.30;99.90
54082;DHT22;39986;50.770;0.266;2022-10-16T09:37:21;20.70;99.90
54082;DHT22;39986;50.770;0.266;2022-10-16T09:39:48;20.80;99.90
54082;DHT22;39986;50.770;0.266;2022-10-16T09:42:24;21.10;99.90
54082;DHT22;39986;50.770;0.266;2022-10-16T09:44:52;21.10;99.90
54082;DHT22;39986;50.770;0.266;2022-10-16T09:47:25;21.20;99.90
54082;DHT22;39986;50.770;0.266;2022-10-16T09:52:17;21.10;99.90
54082;DHT22;39986;50.770;0.266;2022-10-16T09:54:51;20.70;99.90
54082;DHT22;39986;50.770;0.266;2022-10-16T09:57:17;20.50;99.90
54082;DHT22;39986;50.770;0.266;2022-10-16T09:59:46;20.30;99.90
54082;DHT22;39986;50.770;0.266;2022-10-16T10:02:13;19.70;99.90
54082;DHT22;39986;50.770;0.266;2022-10-16T10:04:41;19.40;99.90
54082;DHT22;39986;50.770;0.266;2022-10-16T10:07:07;19.20;99.90
54082;DHT22;39986;50.770;0.266;2022-10-16T10:09:42;18.60;99.90
54082;DHT22;39986;50.770;0.266;2022-10-16T10:12:23;18.70;99.90
54082;DHT22;39986;50.770;0.266;2022-10-16T10:14:52;18.50;99.90
54082;DHT22;39986;50.770;0.266;2022-10-16T10:17:19;18.30;99.90
54082;DHT22;39986;50.770;0.266;2022-10-16T10:20:13;17.90;99.90
54082;DHT22;39986;50.770;0.266;2022-10-16T10:22:44;17.90;99.90
54082;DHT22;39986;50.770;0.266;2022-10-16T10:35:32;17.10;99.90
54082;DHT22;39986;50.770;0.266;2022-10-16T10:38:25;16.60;99.90
54082;DHT22;39986;50.770;0.266;2022-10-16T10:45:48;16.50;99.90
54082;DHT22;39986;50.770;0.266;2022-10-16T10:50:52;16.60;99.90
54082;DHT22;39986;50.770;0.266;2022-10-16T11:01:09;17.30;99.90
54082;DHT22;39986;50.770;0.266;2022-10-16T11:03:46;17.80;99.90
54082;DHT22;39986;50.770;0.266;2022-10-16T11:06:18;18.60;99.90
54082;DHT22;39986;50.770;0.266;2022-10-16T11:08:57;19.10;99.90
54082;DHT22;39986;50.770;0.266;2022-10-16T11:11:25;19.30;99.90
54082;DHT22;39986;50.770;0.266;2022-10-16T11:13:55;19.40;99.90
54082;DHT22;39986;50.770;0.266;2022-10-16T11:16:23;19.40;99.90
54082;DHT22;39986;50.770;0.266;2022-10-16T11:21:39;19.10;99.90
54082;DHT22;39986;50.770;0.266;2022-10-16T11:24:11;18.80;99.90
54082;DHT22;39986;50.770;0.266;2022-10-16T11:26:39;18.70;99.90
54082;DHT22;39986;50.770;0.266;2022-10-16T11:29:10;18.60;99.90
54082;DHT22;39986;50.770;0.266;2022-10-16T11:31:42;18.60;99.90
54082;DHT22;39986;50.770;0.266;2022-10-16T11:36:49;18.60;99.90
54082;DHT22;39986;50.770;0.266;2022-10-16T11:39:26;18.70;99.90
54082;DHT22;39986;50.770;0.266;2022-10-16T11:42:16;18.80;99.90
54082;DHT22;39986;50.770;0.266;2022-10-16T11:49:38;18.60;99.90
54082;DHT22;39986;50.770;0.266;2022-10-16T11:54:42;18.80;99.90
54082;DHT22;39986;50.770;0.266;2022-10-16T11:57:32;18.80;99.90
54082;DHT22;39986;50.770;0.266;2022-10-16T12:05:13;19.00;99.90
54082;DHT22;39986;50.770;0.266;2022-10-16T12:07:59;18.90;99.90
54082;DHT22;39986;50.770;0.266;2022-10-16T12:10:28;19.00;99.90
54082;DHT22;39986;50.770;0.266;2022-10-16T12:12:54;19.00;99.90
54082;DHT22;39986;50.770;0.266;2022-10-16T12:17:48;19.10;99.90
54082;DHT22;39986;50.770;0.266;2022-10-16T12:22:53;18.80;99.90
54082;DHT22;39986;50.770;0.266;2022-10-16T12:27:57;18.50;99.90
54082;DHT22;39986;50.770;0.266;2022-10-16T12:30:23;18.40;99.90
54082;DHT22;39986;50.770;0.266;2022-10-16T12:32:56;18.10;99.90
54082;DHT22;39986;50.770;0.266;2022-10-16T12:35:29;18.20;99.90
54082;DHT22;39986;50.770;0.266;2022-10-16T12:38:06;18.10;99.90
54082;DHT22;39986;50.770;0.266;2022-10-16T12:40:32;18.40;99.90
54082;DHT22;39986;50.770;0.266;2022-10-16T12:42:58;18.10;99.90
54082;DHT22;39986;50.770;0.266;2022-10-16T12:45:31;18.00;99.90
54082;DHT22;39986;50.770;0.266;2022-10-16T12:47:57;17.90;99.90
54082;DHT22;39986;50.770;0.266;2022-10-16T12:50:30;17.90;99.90
54082;DHT22;39986;50.770;0.266;2022-10-16T12:52:56;17.90;99.90
54082;DHT22;39986;50.770;0.266;2022-10-16T12:55:22;17.80;99.90
54082;DHT22;39986;50.770;0.266;2022-10-16T12:58:07;17.80;99.90
54082;DHT22;39986;50.770;0.266;2022-10-16T13:07:55;17.80;99.90
54082;DHT22;39986;50.770;0.266;2022-10-16T13:26:14;17.70;99.90
54082;DHT22;39986;50.770;0.266;2022-10-16T13:28:40;17.50;99.90
54082;DHT22;39986;50.770;0.266;2022-10-16T13:31:10;17.30;99.90
54082;DHT22;39986;50.770;0.266;2022-10-16T13:36:06;17.20;99.90
54082;DHT22;39986;50.770;0.266;2022-10-16T13:38:34;17.50;99.90
54082;DHT22;39986;50.770;0.266;2022-10-16T13:41:12;17.10;99.90
54082;DHT22;39986;50.770;0.266;2022-10-16T13:46:05;17.30;99.90
54082;DHT22;39986;50.770;0.266;2022-10-16T13:48:32;17.10;99.90
54082;DHT22;39986;50.770;0.266;2022-10-16T13:50:58;16.90;99.90
54082;DHT22;39986;50.770;0.266;2022-10-16T13:53:24;17.00;99.90
54082;DHT22;39986;50.770;0.266;2022-10-16T13:55:50;16.30;99.90
54082;DHT22;39986;50.770;0.266;2022-10-16T13:58:15;17.00;99.90
54082;DHT22;39986;50.770;0.266;2022-10-16T14:00:51;17.00;99.90
54082;DHT22;39986;50.770;0.266;2022-10-16T14:03:18;16.90;99.90
54082;DHT22;39986;50.770;0.266;2022-10-16T14:08:13;16.70;99.90
54082;DHT22;39986;50.770;0.266;2022-10-16T14:10:39;17.00;99.90
54082;DHT22;39986;50.770;0.266;2022-10-16T14:13:05;16.70;99.90
54082;DHT22;39986;50.770;0.266;2022-10-16T14:15:32;16.80;99.90
54082;DHT22;39986;50.770;0.266;2022-10-16T14:17:58;16.80;99.90
54082;DHT22;39986;50.770;0.266;2022-10-16T14:20:25;16.70;99.90
54082;DHT22;39986;50.770;0.266;2022-10-16T14:23:02;16.60;99.90
54082;DHT22;39986;50.770;0.266;2022-10-16T14:25:29;16.80;99.90
54082;DHT22;39986;50.770;0.266;2022-10-16T14:28:13;16.70;99.90
54082;DHT22;39986;50.770;0.266;2022-10-16T14:30:49;16.80;99.90
54082;DHT22;39986;50.770;0.266;2022-10-16T14:33:20;16.50;99.90
54082;DHT22;39986;50.770;0.266;2022-10-16T14:35:56;16.70;99.90
54082;DHT22;39986;50.770;0.266;2022-10-16T14:38:25;16.70;99.90
54082;DHT22;39986;50.770;0.266;2022-10-16T14:40:51;19.90;99.90
54082;DHT22;39986;50.770;0.266;2022-10-16T14:43:20;16.70;99.90
54082;DHT22;39986;50.770;0.266;2022-10-16T14:45:49;16.60;99.90
54082;DHT22;39986;50.770;0.266;2022-10-16T14:48:17;16.50;99.90
54082;DHT22;39986;50.770;0.266;2022-10-16T14:50:43;16.60;99.90
54082;DHT22;39986;50.770;0.266;2022-10-16T14:53:11;16.50;99.90
54082;DHT22;39986;50.770;0.266;2022-10-16T14:55:37;16.40;99.90
54082;DHT22;39986;50.770;0.266;2022-10-16T14:58:02;16.50;99.90
54082;DHT22;39986;50.770;0.266;2022-10-16T15:00:28;16.60;99.90
54082;DHT22;39986;50.770;0.266;2022-10-16T15:02:53;16.30;99.90
54082;DHT22;39986;50.770;0.266;2022-10-16T15:05:20;16.70;99.90
54082;DHT22;39986;50.770;0.266;2022-10-16T15:07:47;16.60;99.90
54082;DHT22;39986;50.770;0.266;2022-10-16T15:10:14;16.50;99.90
54082;DHT22;39986;50.770;0.266;2022-10-16T15:12:40;16.50;99.90
54082;DHT22;39986;50.770;0.266;2022-10-16T15:15:23;16.60;99.90
54082;DHT22;39986;50.770;0.266;2022-10-16T15:17:50;16.40;99.90
54082;DHT22;39986;50.770;0.266;2022-10-16T15:20:21;16.60;99.90
54082;DHT22;39986;50.770;0.266;2022-10-16T15:22:47;16.60;99.90
54082;DHT22;39986;50.770;0.266;2022-10-16T15:25:34;16.40;99.90
54082;DHT22;39986;50.770;0.266;2022-10-16T15:27:59;16.40;99.90
54082;DHT22;39986;50.770;0.266;2022-10-16T15:30:24;16.20;99.90
54082;DHT22;39986;50.770;0.266;2022-10-16T15:32:50;16.20;99.90
54082;DHT22;39986;50.770;0.266;2022-10-16T15:35:16;16.30;99.90
54082;DHT22;39986;50.770;0.266;2022-10-16T15:37:42;16.20;99.90
54082;DHT22;39986;50.770;0.266;2022-10-16T15:40:08;16.10;99.90
54082;DHT22;39986;50.770;0.266;2022-10-16T15:42:59;16.10;99.90
54082;DHT22;39986;50.770;0.266;2022-10-16T15:45:26;16.10;99.90
54082;DHT22;39986;50.770;0.266;2022-10-16T15:47:52;16.00;99.90
54082;DHT22;39986;50.770;0.266;2022-10-16T15:50:17;16.10;99.90
54082;DHT22;39986;50.770;0.266;2022-10-16T15:52:43;16.10;99.90
54082;DHT22;39986;50.770;0.266;2022-10-16T15:55:09;16.00;99.90
54082;DHT22;39986;50.770;0.266;2022-10-16T15:57:36;16.10;99.90
54082;DHT22;39986;50.770;0.266;2022-10-16T16:00:07;16.10;99.90
54082;DHT22;39986;50.770;0.266;2022-10-16T16:02:33;16.20;99.90
54082;DHT22;39986;50.770;0.266;2022-10-16T16:04:58;16.30;99.90
54082;DHT22;39986;50.770;0.266;2022-10-16T16:07:24;16.20;99.90
54082;DHT22;39986;50.770;0.266;2022-10-16T16:09:50;16.40;99.90
54082;DHT22;39986;50.770;0.266;2022-10-16T16:12:15;16.00;99.90
54082;DHT22;39986;50.770;0.266;2022-10-16T16:14:41;16.30;99.90
54082;DHT22;39986;50.770;0.266;2022-10-16T16:17:06;16.30;99.90
54082;DHT22;39986;50.770;0.266;2022-10-16T16:19:32;16.40;99.90
54082;DHT22;39986;50.770;0.266;2022-10-16T16:21:58;16.10;99.90
54082;DHT22;39986;50.770;0.266;2022-10-16T16:24:23;16.00;99.90
54082;DHT22;39986;50.770;0.266;2022-10-16T16:26:49;16.20;99.90
54082;DHT22;39986;50.770;0.266;2022-10-16T16:29:15;16.20;99.90
54082;DHT22;39986;50.770;0.266;2022-10-16T16:31:41;15.90;99.90
54082;DHT22;39986;50.770;0.266;2022-10-16T16:34:07;16.00;99.90
54082;DHT22;39986;50.770;0.266;2022-10-16T16:36:32;16.10;99.90
54082;DHT22;39986;50.770;0.266;2022-10-16T16:39:00;16.20;99.90
54082;DHT22;39986;50.770;0.266;2022-10-16T16:41:27;15.90;99.90
54082;DHT22;39986;50.770;0.266;2022-10-16T16:43:53;16.10;99.90
54082;DHT22;39986;50.770;0.266;2022-10-16T16:46:19;16.00;99.90
54082;DHT22;39986;50.770;0.266;2022-10-16T16:48:45;16.20;99.90
54082;DHT22;39986;50.770;0.266;2022-10-16T16:51:12;16.00;99.90
54082;DHT22;39986;50.770;0.266;2022-10-16T16:53:45;17.20;99.90
54082;DHT22;39986;50.770;0.266;2022-10-16T16:56:11;16.30;99.90
54082;DHT22;39986;50.770;0.266;2022-10-16T16:58:37;15.90;99.90
54082;DHT22;39986;50.770;0.266;2022-10-16T17:01:02;16.10;99.90
54082;DHT22;39986;50.770;0.266;2022-10-16T17:03:28;16.10;99.90
54082;DHT22;39986;50.770;0.266;2022-10-16T17:05:55;16.20;99.90
54082;DHT22;39986;50.770;0.266;2022-10-16T17:08:20;16.00;99.90
54082;DHT22;39986;50.770;0.266;2022-10-16T17:10:46;15.90;99.90
54082;DHT22;39986;50.770;0.266;2022-10-16T17:13:15;16.10;99.90
54082;DHT22;39986;50.770;0.266;2022-10-16T17:15:45;16.00;99.90
54082;DHT22;39986;50.770;0.266;2022-10-16T17:18:12;16.10;99.90
54082;DHT22;39986;50.770;0.266;2022-10-16T17:20:38;16.10;99.90
54082;DHT22;39986;50.770;0.266;2022-10-16T17:23:04;16.00;99.90
54082;DHT22;39986;50.770;0.266;2022-10-16T17:25:29;15.90;99.90
54082;DHT22;39986;50.770;0.266;2022-10-16T17:27:55;16.00;99.90
54082;DHT22;39986;50.770;0.266;2022-10-16T17:30:22;16.20;99.90
54082;DHT22;39986;50.770;0.266;2022-10-16T17:32:48;15.90;99.90
54082;DHT22;39986;50.770;0.266;2022-10-16T17:35:13;16.20;99.90
54082;DHT22;39986;50.770;0.266;2022-10-16T17:37:39;16.20;99.90
54082;DHT22;39986;50.770;0.266;2022-10-16T17:40:06;16.30;99.90